Norwegian Spirit — C6TQ6 — position and weather

sailwx.info

Track history (hours):
 
Tides and Currents Weather Stations Pressure Air Temp Water Temp Dewpoint Dewpoint Depression Visibility Wind Speed Wind Dir Waves Ship Positions

Norwegian Spirit

Operator: Norwegian Cruise Line

Last reported at 2019-Feb-15 13:00 UTC. Time now 2019-Feb-16 03:21 UTC.
Position N 36°18' W 002°48'.

Type: Passenger vessel. MMSI: 311746000.

Wind from 060 at 32 knots

Barometer 1026.0 mb
Air temperature 13.0 ° C
Visibility: greater than 10.8 NM
Water temperature 16.0 ° C

Date/timePositionNaut miles runAvg speedWind from/ knotsBaromVisibWave heightAir tempDewpointWater temp
2019-Feb-15 13:00N 36°18' W 002°48'25836.9 060 / 321026.010.8 13.0 16.0
2019-Feb-15 06:00N 37°24' E 002°24'12160.7 030 / 171029.0 5.4 13.0 7.315.0
2019-Feb-15 04:00N 38°06' E 000°00'6321.1 050 / 111030.0 5.4 13.0 7.315.0
2019-Feb-15 01:00N 39°00' E 000°42'5119.9 010 / 51028.0 5.4 12.010.215.0
2019-Feb-14 22:27N 39°45' E 001°13'3 7.5
2019-Feb-14 22:00N 39°48' E 001°12'5123.1 060 / 51028.010.8 12.010.215.0
2019-Feb-14 19:48N 40°32' E 001°44'2421.1
2019-Feb-14 18:39N 40°54' E 001°59'321.4
2019-Feb-14 18:30N 40°57' E 002°00'1121.3
2019-Feb-14 18:00N 41°06' E 002°06'1020.6
2019-Feb-14 17:30N 41°16' E 002°11'510.1
2019-Feb-14 17:00N 41°21' E 002°10'0 0.1
2019-Feb-14 13:24N 41°22' E 002°11'0 0.0
2019-Feb-14 12:54N 41°22' E 002°11'0 0.0
2019-Feb-14 12:30N 41°22' E 002°11'0 0.0
2019-Feb-14 12:00N 41°22' E 002°11'0 0.0
2019-Feb-14 11:30N 41°22' E 002°11'0 0.0
2019-Feb-14 11:00N 41°22' E 002°11'0 0.0
2019-Feb-14 10:30N 41°22' E 002°11'0 0.0
2019-Feb-14 10:00N 41°22' E 002°11'0 0.0
2019-Feb-14 09:30N 41°22' E 002°11'0 0.0
2019-Feb-14 09:00N 41°22' E 002°11'0 0.0
2019-Feb-14 08:30N 41°22' E 002°11'0 0.0
2019-Feb-14 08:00N 41°22' E 002°11'0 0.0
2019-Feb-14 07:30N 41°22' E 002°11'0 0.0
2019-Feb-14 07:00N 41°22' E 002°11'0 0.0
2019-Feb-14 06:21N 41°22' E 002°11'0 0.0
2019-Feb-14 05:57N 41°22' E 002°11'0 0.0
2019-Feb-14 05:27N 41°22' E 002°11'0 0.0
2019-Feb-14 05:00N 41°22' E 002°11'0 0.0
2019-Feb-14 04:30N 41°22' E 002°11'0 0.0
2019-Feb-14 03:59N 41°22' E 002°11'4 3.7
2019-Feb-14 03:00N 41°18' E 002°11'815.5
2019-Feb-14 02:31N 41°10' E 002°09'816.7
2019-Feb-14 02:00N 41°03' E 002°05'18512546.8
2019-Feb-14 02:00N 41°00' W 002°00'180296.0 030 / 71034.010.8 13.0 14.0
2019-Feb-14 01:23N 40°53' E 001°58'25911.1
2019-Feb-13 02:00N 37°12' W 000°54'14117.6 090 / 171025.0 5.4 15.0 15.0
2019-Feb-12 18:00N 36°30' W 003°42'39 2.8 100 / 261030.010.8 15.0 15.0
2019-Feb-12 04:00N 36°24' W 004°30'16218.0 090 / 241027.010.8 15.0 16.0
2019-Feb-11 19:00N 35°24' W 007°36'15717.5 360 / 151026.0 5.4 17.015.419.0
2019-Feb-11 10:00N 34°30' W 010°36'6019.9 080 / 191029.010.8 16.0 19.0
2019-Feb-11 07:00N 34°06' W 011°42'3718.4 100 / 201025.0 5.4 16.010.818.0
2019-Feb-11 05:00N 33°54' W 012°24'16418.3 080 / 171025.0 2.2 15.0 9.616.0
2019-Feb-10 20:00N 33°00' W 015°30'85 5.7 090 / 221025.0 2.2 16.010.819.0
2019-Feb-10 05:00N 32°00' W 016°42'17717.7 090 / 131024.0 5.4 17.011.920.0
2019-Feb-09 19:00N 29°06' W 016°06'3116.7 080 / 191021.010.8 17.0 20.0
2019-Feb-09 17:08N 28°35' W 016°04'217.4
2019-Feb-09 17:00N 28°33' W 016°05'816.4
2019-Feb-09 16:31N 28°28' W 016°12'2 3.4
2019-Feb-09 15:58N 28°28' W 016°14'0 0.0
2019-Feb-09 15:28N 28°28' W 016°14'0 0.0
2019-Feb-09 14:58N 28°28' W 016°14'0 0.0
2019-Feb-09 14:28N 28°28' W 016°14'0 0.0
2019-Feb-09 13:58N 28°28' W 016°14'0 0.0
2019-Feb-09 13:28N 28°28' W 016°14'0 0.0
2019-Feb-09 12:58N 28°28' W 016°14'0 0.0
2019-Feb-09 12:28N 28°28' W 016°14'0 0.0
2019-Feb-09 11:58N 28°28' W 016°14'0 0.0
2019-Feb-09 11:28N 28°28' W 016°14'0 0.0
2019-Feb-09 10:58N 28°28' W 016°14'0 0.0
2019-Feb-09 10:28N 28°28' W 016°14'0 0.0
2019-Feb-09 09:58N 28°28' W 016°14'0 0.0
2019-Feb-09 09:28N 28°28' W 016°14'0 0.0
2019-Feb-09 08:58N 28°28' W 016°14'0 0.0
2019-Feb-09 08:28N 28°28' W 016°14'0 0.0
2019-Feb-09 07:58N 28°28' W 016°14'0 0.0
2019-Feb-09 07:30N 28°28' W 016°14'0 1.0
2019-Feb-09 07:00N 28°29' W 016°14'4 7.2
2019-Feb-09 06:30N 28°26' W 016°11'4 7.8
2019-Feb-09 06:00N 28°25' W 016°07'4 8.1
2019-Feb-09 05:30N 28°24' W 016°02'3 6.9
2019-Feb-09 05:00N 28°25' W 015°58'4311.7
2019-Feb-09 05:00N 28°24' W 015°54'4 8.1 060 / 131021.0 17.0 19.0
2019-Feb-09 04:30N 28°28' W 015°55'4 7.8
2019-Feb-09 03:57N 28°31' W 015°52'4 7.7
2019-Feb-09 03:29N 28°34' W 015°49'715.2
2019-Feb-09 03:00N 28°30' W 015°42'36 1.7 050 / 121025.0 5.4 17.0 16.0
2019-Feb-08 06:00N 28°06' W 015°12'17 8.5 080 / 91022.0 2.2 17.0 16.0
2019-Feb-08 04:00N 28°12' W 014°54'16 8.0 060 / 121022.0 2.2 17.0 16.0
2019-Feb-08 02:00N 28°24' W 014°42'44 9.6 050 / 151025.0 2.2 17.0 16.0
2019-Feb-07 21:26N 28°48' W 014°01'5 9.6
2019-Feb-07 20:56N 28°48' W 013°55'4 9.5
2019-Feb-07 20:30N 28°48' W 013°51'4 8.9
2019-Feb-07 20:00N 28°49' W 013°45'5 9.6
2019-Feb-07 19:30N 28°51' W 013°40'5 9.7
2019-Feb-07 18:58N 28°53' W 013°35'4 9.0
2019-Feb-07 18:30N 28°56' W 013°32'2 3.5
2019-Feb-07 17:56N 28°58' W 013°32'0 0.0
2019-Feb-07 17:26N 28°58' W 013°32'0 0.0
2019-Feb-07 16:56N 28°58' W 013°32'0 0.0
2019-Feb-07 16:14N 28°58' W 013°32'0 0.0
2019-Feb-07 15:38N 28°58' W 013°32'0 0.0
2019-Feb-07 15:26N 28°58' W 013°32'0 0.0
2019-Feb-07 14:59N 28°58' W 013°32'0 0.0
2019-Feb-07 14:26N 28°58' W 013°32'0 0.0
2019-Feb-07 13:50N 28°58' W 013°32'0 0.0
2019-Feb-07 13:26N 28°58' W 013°32'0 0.0
2019-Feb-07 12:44N 28°58' W 013°32'0 0.0
2019-Feb-07 12:26N 28°58' W 013°32'0 0.0
2019-Feb-07 11:50N 28°58' W 013°32'0 0.0
2019-Feb-07 11:20N 28°58' W 013°32'0 0.0
2019-Feb-07 10:56N 28°58' W 013°32'0 0.0
2019-Feb-07 10:26N 28°58' W 013°32'0 0.0
2019-Feb-07 09:50N 28°58' W 013°32'0 0.0
2019-Feb-07 09:02N 28°58' W 013°32'0 0.0
2019-Feb-07 08:29N 28°58' W 013°32'0 0.0
2019-Feb-07 07:56N 28°58' W 013°32'0 0.0
2019-Feb-07 07:20N 28°58' W 013°32'0 0.6
2019-Feb-07 06:59N 28°58' W 013°32'2 5.1
2019-Feb-07 06:30N 28°56' W 013°30'611.5
2019-Feb-07 06:00N 28°60' W 013°24'611.4
2019-Feb-07 05:30N 29°04' W 013°19'611.5
2019-Feb-07 05:00N 29°07' W 013°14'2595.8
2019-Feb-07 05:00N 29°06' W 013°12'3411.7 050 / 151024.0 5.4 17.0 19.0
2019-Feb-07 02:03N 29°34' W 012°49'111.7
2019-Feb-07 02:00N 29°34' W 012°49'611.7
2019-Feb-07 01:29N 29°40' W 012°46'713.5
2019-Feb-07 00:56N 29°44' W 012°38'512.3
2019-Feb-07 00:30N 29°47' W 012°34'1711.7
2019-Feb-06 23:01N 30°00' W 012°20'011.3
2019-Feb-06 23:00N 30°00' W 012°20'611.3
2019-Feb-06 22:29N 30°05' W 012°16'1411.9
2019-Feb-06 21:18N 30°15' W 012°05'411.8
2019-Feb-06 20:57N 30°18' W 012°02'511.7
2019-Feb-06 20:30N 30°22' W 011°58'611.7
2019-Feb-06 20:00N 30°27' W 011°54'611.6
2019-Feb-06 19:29N 30°31' W 011°49'711.7
2019-Feb-06 18:56N 30°36' W 011°44'1011.7
2019-Feb-06 18:04N 30°44' W 011°36'2811.7
2019-Feb-06 15:43N 31°05' W 011°16'312.1
2019-Feb-06 15:30N 31°07' W 011°13'612.0
2019-Feb-06 15:00N 31°11' W 011°09'1411.7
2019-Feb-06 13:48N 31°22' W 010°58'611.6
2019-Feb-06 13:16N 31°26' W 010°53'311.7
2019-Feb-06 13:00N 31°29' W 010°51'6911.5
2019-Feb-06 07:00N 32°18' W 009°54'2411.8 020 / 201025.0 5.4 16.010.818.0
2019-Feb-06 05:00N 32°36' W 009°36'3912.0 040 / 131025.0 5.4 16.010.818.0
2019-Feb-06 01:43N 33°05' W 009°05'1611.3
2019-Feb-06 00:18N 33°16' W 008°51'5711.3
2019-Feb-05 19:14N 33°41' W 007°49'11 2.5
2019-Feb-05 14:40N 33°36' W 007°36'0 0.0
2019-Feb-05 14:22N 33°36' W 007°36'0 0.0
2019-Feb-05 13:52N 33°36' W 007°36'0 0.0
2019-Feb-05 13:28N 33°36' W 007°36'  
Track history (hours):
 
Tides and Currents Weather Stations Pressure Air Temp Water Temp Dewpoint Dewpoint Depression Visibility Wind Speed Wind Dir Waves Ship Positions

Norwegian Spirit

Operator: Norwegian Cruise Line

Last reported at 2019-Feb-15 13:00 UTC. Time now 2019-Feb-16 03:21 UTC.
Position N 36°18' W 002°48'.

Type: Passenger vessel. MMSI: 311746000.

Wind from 060 at 32 knots

Barometer 1026.0 mb
Air temperature 13.0 ° C
Visibility: greater than 10.8 NM
Water temperature 16.0 ° C

Date/timePositionNaut miles runAvg speedWind from/ knotsBaromVisibWave heightAir tempDewpointWater temp
2019-Feb-15 13:00N 36°18' W 002°48'25836.9 060 / 321026.010.8 13.0 16.0
2019-Feb-15 06:00N 37°24' E 002°24'12160.7 030 / 171029.0 5.4 13.0 7.315.0
2019-Feb-15 04:00N 38°06' E 000°00'6321.1 050 / 111030.0 5.4 13.0 7.315.0
2019-Feb-15 01:00N 39°00' E 000°42'5119.9 010 / 51028.0 5.4 12.010.215.0
2019-Feb-14 22:27N 39°45' E 001°13'3 7.5
2019-Feb-14 22:00N 39°48' E 001°12'5123.1 060 / 51028.010.8 12.010.215.0
2019-Feb-14 19:48N 40°32' E 001°44'2421.1
2019-Feb-14 18:39N 40°54' E 001°59'321.4
2019-Feb-14 18:30N 40°57' E 002°00'1121.3
2019-Feb-14 18:00N 41°06' E 002°06'1020.6
2019-Feb-14 17:30N 41°16' E 002°11'510.1
2019-Feb-14 17:00N 41°21' E 002°10'0 0.1
2019-Feb-14 13:24N 41°22' E 002°11'0 0.0
2019-Feb-14 12:54N 41°22' E 002°11'0 0.0
2019-Feb-14 12:30N 41°22' E 002°11'0 0.0
2019-Feb-14 12:00N 41°22' E 002°11'0 0.0
2019-Feb-14 11:30N 41°22' E 002°11'0 0.0
2019-Feb-14 11:00N 41°22' E 002°11'0 0.0
2019-Feb-14 10:30N 41°22' E 002°11'0 0.0
2019-Feb-14 10:00N 41°22' E 002°11'0 0.0
2019-Feb-14 09:30N 41°22' E 002°11'0 0.0
2019-Feb-14 09:00N 41°22' E 002°11'0 0.0
2019-Feb-14 08:30N 41°22' E 002°11'0 0.0
2019-Feb-14 08:00N 41°22' E 002°11'0 0.0
2019-Feb-14 07:30N 41°22' E 002°11'0 0.0
2019-Feb-14 07:00N 41°22' E 002°11'0 0.0
2019-Feb-14 06:21N 41°22' E 002°11'0 0.0
2019-Feb-14 05:57N 41°22' E 002°11'0 0.0
2019-Feb-14 05:27N 41°22' E 002°11'0 0.0
2019-Feb-14 05:00N 41°22' E 002°11'0 0.0
2019-Feb-14 04:30N 41°22' E 002°11'0 0.0
2019-Feb-14 03:59N 41°22' E 002°11'4 3.7
2019-Feb-14 03:00N 41°18' E 002°11'815.5
2019-Feb-14 02:31N 41°10' E 002°09'816.7
2019-Feb-14 02:00N 41°03' E 002°05'18512546.8
2019-Feb-14 02:00N 41°00' W 002°00'180296.0 030 / 71034.010.8 13.0 14.0
2019-Feb-14 01:23N 40°53' E 001°58'25911.1
2019-Feb-13 02:00N 37°12' W 000°54'14117.6 090 / 171025.0 5.4 15.0 15.0
2019-Feb-12 18:00N 36°30' W 003°42'39 2.8 100 / 261030.010.8 15.0 15.0
2019-Feb-12 04:00N 36°24' W 004°30'16218.0 090 / 241027.010.8 15.0 16.0
2019-Feb-11 19:00N 35°24' W 007°36'15717.5 360 / 151026.0 5.4 17.015.419.0
2019-Feb-11 10:00N 34°30' W 010°36'6019.9 080 / 191029.010.8 16.0 19.0
2019-Feb-11 07:00N 34°06' W 011°42'3718.4 100 / 201025.0 5.4 16.010.818.0
2019-Feb-11 05:00N 33°54' W 012°24'16418.3 080 / 171025.0 2.2 15.0 9.616.0
2019-Feb-10 20:00N 33°00' W 015°30'85 5.7 090 / 221025.0 2.2 16.010.819.0
2019-Feb-10 05:00N 32°00' W 016°42'17717.7 090 / 131024.0 5.4 17.011.920.0
2019-Feb-09 19:00N 29°06' W 016°06'3116.7 080 / 191021.010.8 17.0 20.0
2019-Feb-09 17:08N 28°35' W 016°04'217.4
2019-Feb-09 17:00N 28°33' W 016°05'816.4
2019-Feb-09 16:31N 28°28' W 016°12'2 3.4
2019-Feb-09 15:58N 28°28' W 016°14'0 0.0
2019-Feb-09 15:28N 28°28' W 016°14'0 0.0
2019-Feb-09 14:58N 28°28' W 016°14'0 0.0
2019-Feb-09 14:28N 28°28' W 016°14'0 0.0
2019-Feb-09 13:58N 28°28' W 016°14'0 0.0
2019-Feb-09 13:28N 28°28' W 016°14'0 0.0
2019-Feb-09 12:58N 28°28' W 016°14'0 0.0
2019-Feb-09 12:28N 28°28' W 016°14'0 0.0
2019-Feb-09 11:58N 28°28' W 016°14'0 0.0
2019-Feb-09 11:28N 28°28' W 016°14'0 0.0
2019-Feb-09 10:58N 28°28' W 016°14'0 0.0
2019-Feb-09 10:28N 28°28' W 016°14'0 0.0
2019-Feb-09 09:58N 28°28' W 016°14'0 0.0
2019-Feb-09 09:28N 28°28' W 016°14'0 0.0
2019-Feb-09 08:58N 28°28' W 016°14'0 0.0
2019-Feb-09 08:28N 28°28' W 016°14'0 0.0
2019-Feb-09 07:58N 28°28' W 016°14'0 0.0
2019-Feb-09 07:30N 28°28' W 016°14'0 1.0
2019-Feb-09 07:00N 28°29' W 016°14'4 7.2
2019-Feb-09 06:30N 28°26' W 016°11'4 7.8
2019-Feb-09 06:00N 28°25' W 016°07'4 8.1
2019-Feb-09 05:30N 28°24' W 016°02'3 6.9
2019-Feb-09 05:00N 28°25' W 015°58'4311.7
2019-Feb-09 05:00N 28°24' W 015°54'4 8.1 060 / 131021.0 17.0 19.0
2019-Feb-09 04:30N 28°28' W 015°55'4 7.8
2019-Feb-09 03:57N 28°31' W 015°52'4 7.7
2019-Feb-09 03:29N 28°34' W 015°49'715.2
2019-Feb-09 03:00N 28°30' W 015°42'36 1.7 050 / 121025.0 5.4 17.0 16.0
2019-Feb-08 06:00N 28°06' W 015°12'17 8.5 080 / 91022.0 2.2 17.0 16.0
2019-Feb-08 04:00N 28°12' W 014°54'16 8.0 060 / 121022.0 2.2 17.0 16.0
2019-Feb-08 02:00N 28°24' W 014°42'44 9.6 050 / 151025.0 2.2 17.0 16.0
2019-Feb-07 21:26N 28°48' W 014°01'5 9.6
2019-Feb-07 20:56N 28°48' W 013°55'4 9.5
2019-Feb-07 20:30N 28°48' W 013°51'4 8.9
2019-Feb-07 20:00N 28°49' W 013°45'5 9.6
2019-Feb-07 19:30N 28°51' W 013°40'5 9.7
2019-Feb-07 18:58N 28°53' W 013°35'4 9.0
2019-Feb-07 18:30N 28°56' W 013°32'2 3.5
2019-Feb-07 17:56N 28°58' W 013°32'0 0.0
2019-Feb-07 17:26N 28°58' W 013°32'0 0.0
2019-Feb-07 16:56N 28°58' W 013°32'0 0.0
2019-Feb-07 16:14N 28°58' W 013°32'0 0.0
2019-Feb-07 15:38N 28°58' W 013°32'0 0.0
2019-Feb-07 15:26N 28°58' W 013°32'0 0.0
2019-Feb-07 14:59N 28°58' W 013°32'0 0.0
2019-Feb-07 14:26N 28°58' W 013°32'0 0.0
2019-Feb-07 13:50N 28°58' W 013°32'0 0.0
2019-Feb-07 13:26N 28°58' W 013°32'0 0.0
2019-Feb-07 12:44N 28°58' W 013°32'0 0.0
2019-Feb-07 12:26N 28°58' W 013°32'0 0.0
2019-Feb-07 11:50N 28°58' W 013°32'0 0.0
2019-Feb-07 11:20N 28°58' W 013°32'0 0.0
2019-Feb-07 10:56N 28°58' W 013°32'0 0.0
2019-Feb-07 10:26N 28°58' W 013°32'0 0.0
2019-Feb-07 09:50N 28°58' W 013°32'0 0.0
2019-Feb-07 09:02N 28°58' W 013°32'0 0.0
2019-Feb-07 08:29N 28°58' W 013°32'0 0.0
2019-Feb-07 07:56N 28°58' W 013°32'0 0.0
2019-Feb-07 07:20N 28°58' W 013°32'0 0.6
2019-Feb-07 06:59N 28°58' W 013°32'2 5.1
2019-Feb-07 06:30N 28°56' W 013°30'611.5
2019-Feb-07 06:00N 28°60' W 013°24'611.4
2019-Feb-07 05:30N 29°04' W 013°19'611.5
2019-Feb-07 05:00N 29°07' W 013°14'2595.8
2019-Feb-07 05:00N 29°06' W 013°12'3411.7 050 / 151024.0 5.4 17.0 19.0
2019-Feb-07 02:03N 29°34' W 012°49'111.7
2019-Feb-07 02:00N 29°34' W 012°49'611.7
2019-Feb-07 01:29N 29°40' W 012°46'713.5
2019-Feb-07 00:56N 29°44' W 012°38'512.3
2019-Feb-07 00:30N 29°47' W 012°34'1711.7
2019-Feb-06 23:01N 30°00' W 012°20'011.3
2019-Feb-06 23:00N 30°00' W 012°20'611.3
2019-Feb-06 22:29N 30°05' W 012°16'1411.9
2019-Feb-06 21:18N 30°15' W 012°05'411.8
2019-Feb-06 20:57N 30°18' W 012°02'511.7
2019-Feb-06 20:30N 30°22' W 011°58'611.7
2019-Feb-06 20:00N 30°27' W 011°54'611.6
2019-Feb-06 19:29N 30°31' W 011°49'711.7
2019-Feb-06 18:56N 30°36' W 011°44'1011.7
2019-Feb-06 18:04N 30°44' W 011°36'2811.7
2019-Feb-06 15:43N 31°05' W 011°16'312.1
2019-Feb-06 15:30N 31°07' W 011°13'612.0
2019-Feb-06 15:00N 31°11' W 011°09'1411.7
2019-Feb-06 13:48N 31°22' W 010°58'611.6
2019-Feb-06 13:16N 31°26' W 010°53'311.7
2019-Feb-06 13:00N 31°29' W 010°51'6911.5
2019-Feb-06 07:00N 32°18' W 009°54'2411.8 020 / 201025.0 5.4 16.010.818.0
2019-Feb-06 05:00N 32°36' W 009°36'3912.0 040 / 131025.0 5.4 16.010.818.0
2019-Feb-06 01:43N 33°05' W 009°05'1611.3
2019-Feb-06 00:18N 33°16' W 008°51'5711.3
2019-Feb-05 19:14N 33°41' W 007°49'11 2.5
2019-Feb-05 14:40N 33°36' W 007°36'0 0.0
2019-Feb-05 14:22N 33°36' W 007°36'0 0.0
2019-Feb-05 13:52N 33°36' W 007°36'0 0.0
2019-Feb-05 13:28N 33°36' W 007°36'  

Dump ship's entire track history